Time;durP1;ratioP1;P1;durP2;ratioP2;P2;SDS_P1;SDS_P2;PMS_P1;PMS_P2;Temp;Humidity;BMP_temperature;BMP_pressure;BME280_temperature;BME280_humidity;BME280_pressure;Samples;Min_cycle;Max_cycle;Signal;HPM_P1;HPM_P2
2024/03/23 00:01:49;;;;;;;32.50;16.77;;;8.60;99.90;;;;;;4967592;28;20096;-78
2024/03/23 00:04:19;;;;;;;34.05;15.75;;;8.50;99.90;;;;;;4966983;28;20532;-78
2024/03/23 00:06:50;;;;;;;31.20;13.18;;;8.50;99.90;;;;;;4952358;28;20121;-76
2024/03/23 00:09:21;;;;;;;27.95;13.80;;;8.50;99.90;;;;;;4964243;28;20050;-78
2024/03/23 00:11:52;;;;;;;34.20;14.63;;;8.50;99.90;;;;;;4953154;28;20394;-77
2024/03/23 00:14:22;;;;;;;35.42;15.07;;;8.50;99.90;;;;;;4964875;28;20088;-78
2024/03/23 00:16:54;;;;;;;33.75;13.18;;;8.50;99.90;;;;;;4967905;28;20058;-78
2024/03/23 00:19:24;;;;;;;31.08;12.63;;;8.40;99.90;;;;;;4951958;28;20053;-78
2024/03/23 00:21:55;;;;;;;26.08;12.18;;;8.40;99.90;;;;;;4968144;28;20046;-78
2024/03/23 00:24:25;;;;;;;32.60;11.77;;;8.40;99.90;;;;;;4965281;28;20061;-77
2024/03/23 00:26:56;;;;;;;30.75;13.43;;;8.30;99.90;;;;;;4969179;28;20038;-78
2024/03/23 00:29:26;;;;;;;29.25;11.73;;;8.30;99.90;;;;;;4969153;28;20084;-78
2024/03/23 00:31:57;;;;;;;25.38;10.88;;;8.30;99.90;;;;;;4964016;28;20489;-78
2024/03/23 00:34:27;;;;;;;29.75;12.93;;;8.30;99.90;;;;;;4970106;28;20053;-78
2024/03/23 00:36:58;;;;;;;24.48;11.13;;;8.30;99.90;;;;;;4969297;28;20047;-78
2024/03/23 00:39:28;;;;;;;25.13;11.55;;;8.30;99.90;;;;;;4950155;28;20572;-78
2024/03/23 00:41:59;;;;;;;30.17;11.93;;;8.30;99.90;;;;;;4974478;28;20101;-78
2024/03/23 00:44:30;;;;;;;27.02;12.20;;;8.30;99.90;;;;;;4958539;28;20050;-78
2024/03/23 00:47:01;;;;;;;28.13;12.88;;;8.20;99.90;;;;;;4967787;28;20050;-78
2024/03/23 00:49:31;;;;;;;29.85;12.43;;;8.20;99.90;;;;;;4955356;28;20038;-79
2024/03/23 00:52:02;;;;;;;28.33;13.95;;;8.20;99.90;;;;;;4948857;28;20062;-78
2024/03/23 00:54:30;;;;;;;30.20;15.20;;;8.10;99.90;;;;;;4955816;28;20051;-78
2024/03/23 00:56:57;;;;;;;37.30;15.75;;;8.10;99.90;;;;;;4957860;28;20101;-79
2024/03/23 00:59:27;;;;;;;29.80;14.57;;;8.10;99.90;;;;;;4959462;28;20050;-78
2024/03/23 01:01:54;;;;;;;30.48;13.48;;;8.10;99.90;;;;;;4951756;28;20096;-79
2024/03/23 01:04:21;;;;;;;29.92;13.68;;;8.10;99.90;;;;;;4950642;28;20413;-73
2024/03/23 01:06:48;;;;;;;31.80;14.05;;;8.10;99.90;;;;;;4963266;28;20038;-74
2024/03/23 01:09:15;;;;;;;28.83;13.20;;;8.10;99.90;;;;;;4965245;28;20046;-74
2024/03/23 01:11:44;;;;;;;31.48;13.80;;;8.00;99.90;;;;;;4981595;28;20054;-74
2024/03/23 01:14:10;;;;;;;26.13;14.25;;;8.00;99.90;;;;;;4968142;28;20050;-74
2024/03/23 01:16:37;;;;;;;28.67;13.73;;;8.00;99.90;;;;;;4964230;28;20042;-75
2024/03/23 01:19:04;;;;;;;28.13;13.40;;;8.00;99.90;;;;;;4950198;28;20061;-73
2024/03/23 01:21:31;;;;;;;29.15;13.38;;;7.90;99.90;;;;;;4974158;28;20049;-75
2024/03/23 01:23:57;;;;;;;30.33;14.00;;;7.90;99.90;;;;;;4983656;28;20042;-74
2024/03/23 01:26:25;;;;;;;28.52;13.88;;;7.80;99.90;;;;;;4971895;28;20049;-73
2024/03/23 01:28:53;;;;;;;30.25;14.27;;;7.80;99.90;;;;;;4961825;28;20139;-73
2024/03/23 01:31:20;;;;;;;36.42;14.93;;;7.80;99.90;;;;;;4957217;28;20046;-73
2024/03/23 01:33:47;;;;;;;27.98;14.23;;;7.80;99.90;;;;;;4974836;28;20498;-73
2024/03/23 01:36:14;;;;;;;28.17;14.02;;;7.80;99.90;;;;;;4964611;28;20042;-73
2024/03/23 01:38:40;;;;;;;30.45;14.63;;;7.70;99.90;;;;;;4969505;28;20042;-73
2024/03/23 01:41:08;;;;;;;31.02;15.18;;;7.70;99.90;;;;;;4963901;28;20414;-75
2024/03/23 01:43:34;;;;;;;31.10;14.93;;;7.70;99.90;;;;;;4983196;28;20405;-75
2024/03/23 01:46:03;;;;;;;29.88;14.35;;;7.60;99.90;;;;;;4969195;28;20046;-73
2024/03/23 01:48:30;;;;;;;28.58;13.32;;;7.60;99.90;;;;;;4961157;28;20042;-74
2024/03/23 01:50:57;;;;;;;27.92;13.93;;;7.60;99.90;;;;;;4973215;28;20046;-74
2024/03/23 01:53:24;;;;;;;34.10;15.32;;;7.60;99.90;;;;;;4973208;28;20080;-76
2024/03/23 01:55:52;;;;;;;32.55;14.80;;;7.60;99.90;;;;;;4967432;28;20101;-73
2024/03/23 01:58:18;;;;;;;35.47;15.93;;;7.60;99.90;;;;;;4966922;28;20557;-73
2024/03/23 02:00:46;;;;;;;32.22;15.40;;;7.60;99.90;;;;;;4966841;28;20046;-74
2024/03/23 02:03:27;;;;;;;31.48;16.45;;;7.60;99.90;;;;;;4965416;28;20038;-74
2024/03/23 02:05:55;;;;;;;31.60;15.05;;;7.50;99.90;;;;;;4965901;28;20054;-77
2024/03/23 02:08:22;;;;;;;35.97;15.02;;;7.60;99.90;;;;;;4964823;28;20051;-74
2024/03/23 02:10:50;;;;;;;32.72;15.95;;;7.50;99.90;;;;;;4963439;28;20066;-73
2024/03/23 02:13:17;;;;;;;34.13;17.23;;;7.50;99.90;;;;;;4976474;28;20035;-73
2024/03/23 02:15:45;;;;;;;31.65;15.73;;;7.50;99.90;;;;;;4976853;28;20058;-74
2024/03/23 02:18:12;;;;;;;34.15;16.38;;;7.50;99.90;;;;;;4988227;28;20039;-74
2024/03/23 02:20:40;;;;;;;37.78;16.83;;;7.50;99.90;;;;;;4971717;28;20050;-73
2024/03/23 02:23:14;;;;;;;38.78;17.33;;;7.40;99.90;;;;;;4972048;28;20038;-74
2024/03/23 02:25:42;;;;;;;31.58;15.13;;;7.40;99.90;;;;;;4973601;28;20104;-74
2024/03/23 02:28:08;;;;;;;32.67;16.50;;;7.30;99.90;;;;;;4967654;28;20042;-73
2024/03/23 02:30:36;;;;;;;30.13;15.68;;;7.30;99.90;;;;;;4964067;28;20417;-74
2024/03/23 02:33:02;;;;;;;35.70;16.65;;;7.30;99.90;;;;;;4964893;28;20038;-74
2024/03/23 02:35:30;;;;;;;36.72;17.08;;;7.30;99.90;;;;;;4968958;28;20050;-73
2024/03/23 02:37:57;;;;;;;34.60;15.02;;;7.20;99.90;;;;;;4983132;28;20147;-73
2024/03/23 02:40:26;;;;;;;36.42;15.55;;;7.30;99.90;;;;;;4967044;28;20049;-75
2024/03/23 02:42:52;;;;;;;31.75;16.17;;;7.30;99.90;;;;;;4971955;28;20050;-74
2024/03/23 02:45:20;;;;;;;31.75;15.07;;;7.20;99.90;;;;;;4979768;28;20474;-73
2024/03/23 02:47:46;;;;;;;32.80;15.88;;;7.20;99.90;;;;;;4969475;28;20433;-73
2024/03/23 02:50:15;;;;;;;32.45;15.68;;;7.20;99.90;;;;;;4967780;28;20051;-76
2024/03/23 02:52:41;;;;;;;33.92;14.65;;;7.20;99.90;;;;;;4984464;28;20034;-73
2024/03/23 02:55:09;;;;;;;29.85;15.40;;;7.10;99.90;;;;;;4983155;28;20061;-74
2024/03/23 02:57:37;;;;;;;32.45;15.15;;;7.10;99.90;;;;;;4971344;28;20100;-76
2024/03/23 03:00:07;;;;;;;32.05;15.40;;;7.00;99.90;;;;;;4967829;28;20073;-76
2024/03/23 03:02:33;;;;;;;29.20;14.30;;;7.10;99.90;;;;;;4980536;28;20062;-73
2024/03/23 03:05:00;;;;;;;33.40;15.70;;;7.00;99.90;;;;;;4951074;28;20137;-73
2024/03/23 03:07:27;;;;;;;33.30;14.73;;;7.00;99.90;;;;;;4966209;28;20038;-74
2024/03/23 03:09:54;;;;;;;36.30;16.05;;;7.00;99.90;;;;;;4978495;28;20039;-77
2024/03/23 03:12:21;;;;;;;29.35;14.57;;;7.00;99.90;;;;;;4972997;28;20402;-75
2024/03/23 03:14:49;;;;;;;35.38;15.75;;;7.00;99.90;;;;;;4992246;28;20493;-73
2024/03/23 03:17:16;;;;;;;31.00;15.05;;;7.00;99.90;;;;;;4989378;28;20049;-74
2024/03/23 03:19:44;;;;;;;36.90;15.60;;;7.00;99.90;;;;;;4982220;28;20401;-74
2024/03/23 03:22:10;;;;;;;34.50;15.45;;;6.90;99.90;;;;;;4994934;28;20049;-78
2024/03/23 03:24:37;;;;;;;33.05;15.30;;;6.90;99.90;;;;;;5013119;28;20112;-80
2024/03/23 03:27:04;;;;;;;34.65;15.57;;;6.90;99.90;;;;;;5011175;28;20053;-80
2024/03/23 03:29:35;;;;;;;37.05;16.85;;;6.80;99.90;;;;;;5014647;28;20056;-80
2024/03/23 03:32:04;;;;;;;37.92;17.55;;;6.80;99.90;;;;;;5006790;28;20057;-77
2024/03/23 03:34:31;;;;;;;32.78;15.65;;;6.80;99.90;;;;;;4997885;28;20057;-80
2024/03/23 03:36:58;;;;;;;34.47;16.33;;;7.10;99.90;;;;;;4994084;28;20053;-78
2024/03/23 03:39:26;;;;;;;37.00;16.88;;;6.80;99.90;;;;;;5017162;28;20052;-80
2024/03/23 03:41:52;;;;;;;38.58;17.85;;;6.80;99.90;;;;;;5014939;28;20026;-78
2024/03/23 03:44:20;;;;;;;43.05;18.67;;;6.70;99.90;;;;;;4988494;28;20038;-80
2024/03/23 03:46:46;;;;;;;37.80;16.88;;;6.70;99.90;;;;;;5007707;28;20046;-78
2024/03/23 03:49:15;;;;;;;39.00;17.08;;;6.70;99.90;;;;;;5011814;28;20093;-81
2024/03/23 03:51:41;;;;;;;43.25;20.13;;;6.70;99.90;;;;;;5012306;28;20030;-80
2024/03/23 03:54:09;;;;;;;41.10;18.58;;;6.70;99.90;;;;;;5008037;28;20065;-80
2024/03/23 03:56:35;;;;;;;44.10;19.00;;;6.60;99.90;;;;;;5012033;28;20032;-80
2024/03/23 03:59:02;;;;;;;43.95;19.40;;;6.60;99.90;;;;;;5011864;28;20030;-80
2024/03/23 04:01:29;;;;;;;44.92;18.85;;;6.60;99.90;;;;;;5009240;28;20034;-78
2024/03/23 04:03:56;;;;;;;43.42;19.98;;;6.60;99.90;;;;;;5012044;28;20073;-80
2024/03/23 04:06:24;;;;;;;39.63;18.77;;;6.60;99.90;;;;;;5009287;28;20417;-80
2024/03/23 04:08:51;;;;;;;47.90;19.92;;;6.60;99.90;;;;;;5013598;28;20053;-76
2024/03/23 04:11:18;;;;;;;41.15;19.35;;;6.60;99.90;;;;;;5028967;28;20162;-77
2024/03/23 04:13:45;;;;;;;45.35;21.02;;;6.60;99.90;;;;;;5014014;28;20046;-80
2024/03/23 04:16:12;;;;;;;43.55;20.95;;;6.60;99.90;;;;;;4998200;28;20041;-81
2024/03/23 04:18:40;;;;;;;44.22;18.38;;;6.90;99.90;;;;;;5015341;28;20060;-80
2024/03/23 04:21:07;;;;;;;42.42;19.52;;;6.70;99.90;;;;;;5012532;28;20536;-80
2024/03/23 04:23:36;;;;;;;44.65;20.55;;;6.60;99.90;;;;;;4994930;28;20033;-80
2024/03/23 04:26:05;;;;;;;40.58;18.55;;;6.60;99.90;;;;;;4992161;28;20073;-79
2024/03/23 04:28:32;;;;;;;38.25;17.52;;;6.60;99.90;;;;;;5013453;28;20038;-80
2024/03/23 04:31:03;;;;;;;39.90;17.75;;;5.80;99.90;;;;;;4997418;28;20046;-79
2024/03/23 04:33:31;;;;;;;37.50;17.90;;;6.70;99.90;;;;;;5001417;28;20047;-74
2024/03/23 04:35:57;;;;;;;38.78;18.50;;;6.60;99.90;;;;;;4984354;28;20045;-74
2024/03/23 04:38:24;;;;;;;42.03;19.05;;;6.60;99.90;;;;;;4977118;28;20441;-74
2024/03/23 04:40:57;;;;;;;43.80;18.73;;;6.60;99.90;;;;;;4979384;28;20382;-73
2024/03/23 04:43:24;;;;;;;39.92;17.85;;;6.60;99.90;;;;;;5000164;28;20073;-73
2024/03/23 04:45:52;;;;;;;39.05;18.05;;;6.60;99.90;;;;;;5005874;28;20045;-74
2024/03/23 04:48:22;;;;;;;41.53;18.38;;;6.60;99.90;;;;;;4978959;28;20046;-75
2024/03/23 04:50:50;;;;;;;39.28;17.13;;;6.60;99.90;;;;;;4972857;28;20054;-76
2024/03/23 04:53:17;;;;;;;40.97;17.70;;;6.60;99.90;;;;;;4989864;28;20038;-74
2024/03/23 04:55:45;;;;;;;40.33;18.42;;;6.60;99.90;;;;;;4990955;28;20050;-77
2024/03/23 04:58:13;;;;;;;39.35;17.55;;;6.60;99.90;;;;;;4991138;28;20460;-73
2024/03/23 05:00:40;;;;;;;39.80;18.13;;;6.70;99.90;;;;;;4978322;28;20046;-74
2024/03/23 05:03:07;;;;;;;37.13;17.65;;;6.70;99.90;;;;;;4992885;28;20073;-74
2024/03/23 05:05:34;;;;;;;43.00;17.77;;;6.70;99.90;;;;;;4970700;28;20153;-73
2024/03/23 05:08:01;;;;;;;41.17;18.17;;;6.70;99.90;;;;;;4985287;28;20050;-74
2024/03/23 05:10:27;;;;;;;41.58;18.55;;;6.70;99.90;;;;;;4978393;28;20046;-74
2024/03/23 05:12:55;;;;;;;42.45;18.42;;;6.70;99.90;;;;;;4970334;28;20140;-74
2024/03/23 05:15:23;;;;;;;36.92;16.75;;;6.70;99.90;;;;;;4984605;28;20049;-74
2024/03/23 05:17:51;;;;;;;38.95;17.05;;;6.80;99.90;;;;;;4986911;28;20487;-74
2024/03/23 05:20:18;;;;;;;38.33;17.58;;;6.80;99.90;;;;;;4971406;28;20140;-75
2024/03/23 05:22:46;;;;;;;39.03;17.25;;;6.90;99.90;;;;;;4973444;28;20092;-74
2024/03/23 05:25:13;;;;;;;34.58;16.55;;;6.90;99.90;;;;;;4989676;28;20046;-74
2024/03/23 05:27:40;;;;;;;38.92;16.98;;;6.90;99.90;;;;;;4995882;28;20053;-75
2024/03/23 05:30:08;;;;;;;35.85;15.68;;;7.00;99.90;;;;;;4985882;28;20455;-74
2024/03/23 05:32:40;;;;;;;35.40;16.20;;;7.00;99.90;;;;;;4990118;28;20418;-75
2024/03/23 05:35:07;;;;;;;37.70;17.52;;;7.00;99.90;;;;;;4987588;28;20053;-74
2024/03/23 05:37:34;;;;;;;44.97;17.60;;;7.00;99.90;;;;;;4987487;28;20494;-74
2024/03/23 05:40:02;;;;;;;34.83;16.20;;;7.10;99.90;;;;;;4991022;28;20493;-75
2024/03/23 05:42:29;;;;;;;39.45;18.20;;;7.20;99.90;;;;;;4979935;28;20053;-78
2024/03/23 05:44:55;;;;;;;39.72;17.40;;;7.20;99.90;;;;;;4977411;28;20397;-78
2024/03/23 05:47:23;;;;;;;35.60;16.58;;;7.30;99.90;;;;;;4971405;28;20054;-79
2024/03/23 05:49:52;;;;;;;35.42;16.70;;;7.30;99.90;;;;;;5005608;28;20042;-78
2024/03/23 05:52:20;;;;;;;37.30;16.15;;;7.40;99.90;;;;;;4991501;28;20058;-78
2024/03/23 05:54:47;;;;;;;39.60;16.45;;;7.50;99.90;;;;;;4989507;28;20042;-79
2024/03/23 05:57:14;;;;;;;36.85;16.35;;;7.60;99.90;;;;;;4991219;28;20048;-79
2024/03/23 05:59:40;;;;;;;41.33;16.77;;;7.60;99.90;;;;;;4984095;28;20596;-79
2024/03/23 06:02:10;;;;;;;34.55;15.80;;;7.60;99.90;;;;;;4979191;28;20039;-79
2024/03/23 06:04:37;;;;;;;33.35;15.70;;;7.70;99.90;;;;;;4997570;28;20038;-79
2024/03/23 06:07:06;;;;;;;36.85;15.40;;;7.80;99.90;;;;;;4976306;28;20052;-78
2024/03/23 06:09:32;;;;;;;34.08;15.13;;;7.80;99.90;;;;;;4980396;28;20038;-80
2024/03/23 06:12:00;;;;;;;34.72;14.30;;;7.90;99.90;;;;;;4990777;28;20104;-79
2024/03/23 06:14:26;;;;;;;35.80;15.45;;;7.90;99.90;;;;;;4987170;28;20044;-79
2024/03/23 06:16:53;;;;;;;32.40;15.98;;;8.00;99.90;;;;;;4992482;28;20041;-78
2024/03/23 06:19:20;;;;;;;34.60;15.77;;;8.00;99.90;;;;;;4986540;28;20045;-76
2024/03/23 06:21:47;;;;;;;36.80;16.63;;;8.10;99.90;;;;;;5001843;28;20053;-79
2024/03/23 06:24:15;;;;;;;31.65;15.77;;;8.10;99.90;;;;;;4992839;28;20030;-78
2024/03/23 06:26:42;;;;;;;36.13;15.32;;;8.10;99.90;;;;;;4971868;28;20422;-78
2024/03/23 06:29:09;;;;;;;36.30;15.88;;;8.20;99.90;;;;;;4964365;28;20073;-78
2024/03/23 06:31:36;;;;;;;37.10;16.65;;;8.20;99.90;;;;;;4988969;28;20050;-79
2024/03/23 06:34:02;;;;;;;30.83;14.50;;;8.30;99.90;;;;;;4996811;28;20092;-78
2024/03/23 06:36:31;;;;;;;32.88;14.85;;;8.40;99.90;;;;;;4993311;28;20501;-80
2024/03/23 06:38:57;;;;;;;31.25;13.70;;;8.50;99.90;;;;;;4989086;28;20050;-79
2024/03/23 06:41:27;;;;;;;33.80;14.88;;;8.50;99.90;;;;;;4995919;28;20039;-78
2024/03/23 06:43:53;;;;;;;34.40;15.73;;;8.70;99.90;;;;;;4992081;28;20379;-79
2024/03/23 06:46:21;;;;;;;36.55;15.80;;;8.90;99.90;;;;;;4989070;28;20037;-79
2024/03/23 06:48:47;;;;;;;30.65;15.50;;;9.00;99.90;;;;;;4989169;28;20493;-79
2024/03/23 06:51:14;;;;;;;32.55;15.57;;;9.00;99.90;;;;;;4971569;28;20100;-79
2024/03/23 06:53:41;;;;;;;29.38;14.38;;;9.10;99.90;;;;;;4993042;28;20050;-74
2024/03/23 06:56:08;;;;;;;34.90;16.50;;;9.10;99.90;;;;;;4993795;28;20052;-75
2024/03/23 06:58:36;;;;;;;35.67;16.38;;;9.20;99.90;;;;;;4985858;28;20061;-74
2024/03/23 07:01:04;;;;;;;38.70;18.13;;;9.40;99.90;;;;;;5001807;28;20416;-75
2024/03/23 07:03:30;;;;;;;34.38;17.38;;;9.90;99.90;;;;;;4977588;28;20133;-75
2024/03/23 07:05:59;;;;;;;35.85;16.52;;;10.30;99.90;;;;;;4976689;28;20038;-75
2024/03/23 07:08:26;;;;;;;32.40;15.73;;;10.60;99.90;;;;;;4988747;28;20038;-75
2024/03/23 07:10:52;;;;;;;28.42;13.48;;;10.80;99.90;;;;;;4968618;28;20490;-78
2024/03/23 07:13:20;;;;;;;34.22;16.77;;;10.80;99.90;;;;;;4974180;28;20053;-74
2024/03/23 07:15:53;;;;;;;34.88;16.02;;;11.00;99.90;;;;;;4982531;28;20061;-77
2024/03/23 07:18:20;;;;;;;33.25;15.10;;;11.00;99.90;;;;;;4984239;28;20042;-74
2024/03/23 07:20:53;;;;;;;32.28;14.73;;;11.00;99.90;;;;;;4967815;28;20050;-76
2024/03/23 07:23:20;;;;;;;31.00;15.20;;;10.90;99.90;;;;;;4984487;28;20046;-75
2024/03/23 07:25:56;;;;;;;29.73;13.48;;;10.80;99.90;;;;;;4992855;28;20038;-76
2024/03/23 07:28:24;;;;;;;34.38;17.33;;;10.80;99.90;;;;;;4988927;28;20042;-75
2024/03/23 07:31:03;;;;;;;35.85;17.65;;;10.80;99.90;;;;;;4984889;28;20439;-74
2024/03/23 07:33:30;;;;;;;31.75;15.98;;;11.20;99.90;;;;;;4968000;28;20038;-74
2024/03/23 07:35:57;;;;;;;34.75;16.98;;;11.50;99.90;;;;;;4976740;28;20852;-74
2024/03/23 07:38:25;;;;;;;31.75;15.55;;;12.00;99.90;;;;;;4971570;28;20049;-74
2024/03/23 07:40:55;;;;;;;28.73;15.15;;;12.40;99.90;;;;;;4989333;28;20047;-74
2024/03/23 07:43:23;;;;;;;28.83;14.88;;;12.80;99.90;;;;;;5005142;28;20038;-75
2024/03/23 07:45:52;;;;;;;25.95;12.23;;;13.00;99.90;;;;;;4987583;28;20042;-76
2024/03/23 07:48:23;;;;;;;28.52;14.25;;;13.10;99.90;;;;;;4993308;28;20054;-74
2024/03/23 07:51:01;;;;;;;27.27;13.40;;;13.00;99.90;;;;;;4986557;28;20060;-75
2024/03/23 07:53:28;;;;;;;24.63;12.40;;;12.70;99.90;;;;;;4971098;28;20484;-74
2024/03/23 07:55:56;;;;;;;28.05;14.00;;;12.60;99.90;;;;;;4985469;28;20048;-76
2024/03/23 07:58:23;;;;;;;28.98;14.32;;;12.40;99.90;;;;;;4985583;28;20050;-75
2024/03/23 08:00:50;;;;;;;24.88;13.98;;;12.30;99.90;;;;;;4968624;28;20046;-76
2024/03/23 08:03:17;;;;;;;28.38;13.50;;;12.40;99.90;;;;;;4978687;28;20046;-73
2024/03/23 08:05:45;;;;;;;28.10;13.95;;;12.80;99.90;;;;;;4965101;28;20042;-73
2024/03/23 08:08:13;;;;;;;25.92;13.35;;;13.30;99.90;;;;;;4985138;28;20133;-74
2024/03/23 08:10:48;;;;;;;26.63;13.90;;;13.50;99.90;;;;;;4987471;28;20111;-73
2024/03/23 08:13:15;;;;;;;23.88;13.30;;;13.80;99.90;;;;;;5001049;28;20050;-74
2024/03/23 08:15:42;;;;;;;25.67;13.70;;;14.00;99.90;;;;;;4987226;28;20513;-73
2024/03/23 08:18:10;;;;;;;23.92;13.52;;;14.10;99.90;;;;;;4970392;28;20058;-73
2024/03/23 08:20:37;;;;;;;21.08;13.07;;;14.00;99.90;;;;;;4981796;28;20050;-73
2024/03/23 08:23:07;;;;;;;20.38;11.80;;;14.00;99.90;;;;;;4983233;28;20096;-73
2024/03/23 08:25:33;;;;;;;21.85;12.57;;;14.10;99.90;;;;;;4970108;28;20108;-74
2024/03/23 08:28:01;;;;;;;25.05;12.27;;;14.10;99.90;;;;;;4965851;28;20390;-73
2024/03/23 08:30:29;;;;;;;22.10;12.38;;;14.30;99.90;;;;;;4975962;28;20144;-73
2024/03/23 08:32:56;;;;;;;25.90;13.32;;;14.20;99.90;;;;;;4968934;28;20417;-74
2024/03/23 08:35:23;;;;;;;24.92;13.35;;;14.20;99.90;;;;;;4968384;28;20424;-72
2024/03/23 08:37:50;;;;;;;26.20;13.77;;;14.30;99.90;;;;;;4968597;28;20050;-75
2024/03/23 08:40:21;;;;;;;22.33;12.57;;;14.40;99.90;;;;;;4987031;28;20042;-74
2024/03/23 08:42:52;;;;;;;19.65;10.45;;;14.60;99.90;;;;;;4985279;28;20057;-77
2024/03/23 08:45:18;;;;;;;19.00;11.25;;;14.70;99.90;;;;;;4997995;28;20137;-73
2024/03/23 08:47:46;;;;;;;19.10;10.27;;;14.60;99.90;;;;;;4979431;28;20053;-76
2024/03/23 08:50:12;;;;;;;21.20;11.07;;;14.90;99.90;;;;;;4964609;28;20057;-75
2024/03/23 08:52:39;;;;;;;17.77;10.20;;;14.80;99.90;;;;;;4982314;28;20523;-75
2024/03/23 08:55:06;;;;;;;20.85;11.02;;;14.90;99.90;;;;;;4984695;28;20030;-73
2024/03/23 08:57:35;;;;;;;17.77;9.73;;;15.20;99.90;;;;;;4990062;28;20042;-74
2024/03/23 09:00:02;;;;;;;19.45;10.70;;;15.30;99.90;;;;;;4987892;28;20099;-74
2024/03/23 09:02:30;;;;;;;23.77;10.98;;;15.40;99.90;;;;;;4985844;28;20054;-74
2024/03/23 09:04:56;;;;;;;21.88;10.85;;;15.60;99.90;;;;;;5002378;28;20058;-74
2024/03/23 09:07:23;;;;;;;18.90;11.35;;;15.60;99.90;;;;;;4972751;28;20052;-74
2024/03/23 09:09:50;;;;;;;17.45;9.65;;;15.70;99.90;;;;;;4983236;28;20103;-74
2024/03/23 09:12:17;;;;;;;20.33;10.55;;;15.90;99.90;;;;;;4985355;28;20501;-74
2024/03/23 09:14:45;;;;;;;18.85;10.52;;;15.80;99.90;;;;;;4992109;28;20481;-74
2024/03/23 09:17:12;;;;;;;17.73;10.02;;;15.80;99.90;;;;;;4991793;28;20042;-77
2024/03/23 09:19:41;;;;;;;17.00;9.02;;;15.80;99.90;;;;;;4969498;28;20054;-72
2024/03/23 09:22:08;;;;;;;14.60;8.98;;;15.70;99.90;;;;;;4973396;28;20046;-75
2024/03/23 09:24:34;;;;;;;12.88;7.28;;;15.80;99.90;;;;;;4989647;28;20100;-74
2024/03/23 09:27:03;;;;;;;16.75;9.02;;;15.80;99.90;;;;;;4975792;28;20050;-76
2024/03/23 09:29:29;;;;;;;18.67;9.13;;;15.90;99.90;;;;;;4987549;28;20056;-75
2024/03/23 09:31:58;;;;;;;14.73;8.98;;;16.10;99.90;;;;;;4986293;28;20037;-76
2024/03/23 09:34:24;;;;;;;16.80;9.32;;;16.30;99.90;;;;;;5003543;28;20571;-75
2024/03/23 09:36:53;;;;;;;14.93;8.43;;;16.40;99.90;;;;;;4987035;28;20504;-75
2024/03/23 09:39:19;;;;;;;12.82;7.95;;;16.50;99.70;;;;;;4986265;28;20042;-74
2024/03/23 09:41:47;;;;;;;12.27;7.32;;;16.80;99.10;;;;;;4972665;28;20057;-74
2024/03/23 09:44:13;;;;;;;13.45;7.35;;;16.90;98.20;;;;;;4991610;28;20042;-74
2024/03/23 09:46:41;;;;;;;10.95;6.25;;;16.90;98.10;;;;;;4987697;28;20058;-74
2024/03/23 09:49:09;;;;;;;11.55;6.32;;;16.80;97.00;;;;;;4988656;28;20045;-73
2024/03/23 09:51:37;;;;;;;9.95;6.13;;;16.60;96.50;;;;;;4977290;28;20104;-75
2024/03/23 09:54:04;;;;;;;9.38;5.88;;;16.70;96.70;;;;;;4984542;28;20401;-72
2024/03/23 09:56:31;;;;;;;10.57;6.18;;;17.10;96.60;;;;;;4999090;28;20488;-73
2024/03/23 09:59:02;;;;;;;8.38;5.25;;;17.60;95.20;;;;;;4983384;28;20060;-75
2024/03/23 10:01:31;;;;;;;7.00;4.55;;;17.70;94.40;;;;;;4988403;28;20490;-73
2024/03/23 10:03:57;;;;;;;12.55;5.07;;;17.50;93.60;;;;;;4992370;28;20041;-73
2024/03/23 10:06:26;;;;;;;6.78;3.92;;;17.40;93.30;;;;;;4986640;28;20040;-76
2024/03/23 10:08:54;;;;;;;6.60;4.00;;;17.20;93.40;;;;;;4969681;28;20034;-75
2024/03/23 10:11:22;;;;;;;7.65;3.60;;;17.20;93.70;;;;;;4982983;28;20053;-75
2024/03/23 10:13:48;;;;;;;6.45;3.03;;;17.30;92.50;;;;;;4961606;28;20046;-75
2024/03/23 10:16:23;;;;;;;7.85;3.80;;;17.20;92.10;;;;;;4988076;28;20089;-75
2024/03/23 10:18:50;;;;;;;7.13;3.67;;;17.30;92.00;;;;;;4970714;28;20060;-73
2024/03/23 10:21:18;;;;;;;6.55;3.88;;;17.50;92.20;;;;;;4991766;28;20058;-74
2024/03/23 10:23:46;;;;;;;6.57;4.13;;;17.90;91.20;;;;;;4974264;28;20054;-74
2024/03/23 10:26:15;;;;;;;8.18;3.08;;;18.10;91.30;;;;;;4952306;28;20519;-73
2024/03/23 10:28:53;;;;;;;5.25;3.17;;;18.20;90.10;;;;;;4959659;28;20078;-72
2024/03/23 10:31:21;;;;;;;7.18;4.15;;;18.10;90.80;;;;;;4971375;28;20418;-77
2024/03/23 10:33:48;;;;;;;5.15;3.35;;;18.30;90.00;;;;;;4972753;28;20532;-75
2024/03/23 10:36:16;;;;;;;4.47;2.85;;;18.30;90.20;;;;;;4951458;28;20047;-73
2024/03/23 10:38:44;;;;;;;7.10;2.90;;;18.00;88.80;;;;;;4977001;28;20409;-73
2024/03/23 10:41:12;;;;;;;3.50;1.83;;;17.90;88.90;;;;;;4957892;28;20097;-74
2024/03/23 10:43:39;;;;;;;5.97;2.95;;;17.90;90.20;;;;;;4955869;28;20078;-76
2024/03/23 10:46:06;;;;;;;5.95;2.88;;;17.80;88.70;;;;;;4954930;28;20494;-74
2024/03/23 10:48:33;;;;;;;4.63;2.78;;;18.00;88.80;;;;;;4969989;28;20055;-74
2024/03/23 10:51:01;;;;;;;5.10;3.15;;;18.10;89.50;;;;;;4958459;28;20066;-74
2024/03/23 10:53:28;;;;;;;5.90;3.10;;;18.30;88.00;;;;;;4960988;28;20030;-73
2024/03/23 10:55:58;;;;;;;6.13;3.35;;;18.60;88.00;;;;;;4954324;28;20556;-75
2024/03/23 10:58:28;;;;;;;5.50;3.03;;;18.60;86.60;;;;;;4973990;28;20050;-75
2024/03/23 11:00:55;;;;;;;6.88;3.38;;;18.60;86.80;;;;;;4987771;28;20571;-76
2024/03/23 11:03:36;;;;;;;6.95;3.00;;;18.70;86.40;;;;;;4989652;28;20035;-73
2024/03/23 11:06:05;;;;;;;8.45;3.63;;;18.80;87.20;;;;;;4974302;28;20525;-74
2024/03/23 11:08:33;;;;;;;5.75;2.88;;;18.80;87.20;;;;;;4965325;28;20055;-73
2024/03/23 11:11:26;;;;;;;8.18;2.55;;;18.80;85.30;;;;;;4974675;28;20042;-74
2024/03/23 11:13:53;;;;;;;5.70;2.78;;;18.90;85.80;;;;;;4977189;28;20050;-73
2024/03/23 11:16:24;;;;;;;6.82;2.88;;;18.90;85.00;;;;;;5011653;28;20030;-72
2024/03/23 11:18:51;;;;;;;6.00;2.75;;;18.90;85.80;;;;;;4989409;28;20880;-73
2024/03/23 11:21:55;;;;;;;7.15;2.67;;;19.00;84.60;;;;;;4995059;28;20042;-73
2024/03/23 11:24:22;;;;;;;4.50;1.90;;;18.90;83.30;;;;;;4986018;28;20046;-74
2024/03/23 11:26:51;;;;;;;7.30;1.65;;;19.00;81.10;;;;;;4967472;28;20097;-73
2024/03/23 11:29:18;;;;;;;11.13;2.58;;;18.90;81.20;;;;;;4985620;28;20078;-74
2024/03/23 11:31:49;;;;;;;6.63;2.40;;;19.00;80.40;;;;;;4970030;28;20041;-73
2024/03/23 11:34:16;;;;;;;5.22;1.92;;;19.00;80.00;;;;;;4973641;28;20084;-74
2024/03/23 11:36:43;;;;;;;4.50;2.13;;;18.90;80.50;;;;;;4993777;28;20030;-76
2024/03/23 11:39:15;;;;;;;4.45;1.88;;;19.00;80.70;;;;;;4986248;28;20046;-75
2024/03/23 11:41:48;;;;;;;6.93;1.88;;;18.90;80.40;;;;;;4990849;28;20061;-74
2024/03/23 11:44:20;;;;;;;2.78;1.70;;;19.00;80.20;;;;;;4972357;28;20057;-75
2024/03/23 11:46:48;;;;;;;4.47;1.50;;;19.10;80.80;;;;;;4987822;28;20040;-73
2024/03/23 11:49:24;;;;;;;3.10;1.45;;;19.20;81.60;;;;;;4987069;28;20053;-75
2024/03/23 11:51:53;;;;;;;3.78;1.63;;;19.30;80.80;;;;;;4982173;28;20078;-73
2024/03/23 11:54:21;;;;;;;4.65;1.42;;;19.30;79.80;;;;;;4985028;28;20517;-77
2024/03/23 11:56:57;;;;;;;3.95;1.70;;;19.20;79.00;;;;;;5001274;28;20044;-75
2024/03/23 11:59:35;;;;;;;3.55;1.27;;;19.30;79.70;;;;;;4974035;28;20053;-74
2024/03/23 12:02:08;;;;;;;2.75;1.42;;;19.30;79.10;;;;;;4988985;28;20056;-75
2024/03/23 12:04:35;;;;;;;;;;;19.30;78.80;;;;;;4977650;28;20065;-75
2024/03/23 12:07:18;;;;;;;4.68;1.80;;;19.30;78.40;;;;;;4984275;28;19922;-74
2024/03/23 12:09:46;;;;;;;3.15;1.88;;;19.30;77.60;;;;;;4982358;28;20039;-76
2024/03/23 12:12:17;;;;;;;4.85;1.70;;;19.30;78.20;;;;;;4984241;28;20859;-75
2024/03/23 12:14:45;;;;;;;2.53;1.67;;;19.40;77.40;;;;;;4994100;28;20508;-75
2024/03/23 12:17:13;;;;;;;3.22;2.03;;;19.40;77.30;;;;;;4985550;28;20061;-76
2024/03/23 12:19:41;;;;;;;4.18;2.13;;;19.50;77.20;;;;;;4966728;28;20054;-74
2024/03/23 12:22:09;;;;;;;3.03;1.40;;;19.50;78.50;;;;;;4979774;28;20085;-74
2024/03/23 12:24:35;;;;;;;2.67;1.30;;;19.50;78.30;;;;;;4993791;28;20050;-75
2024/03/23 12:27:04;;;;;;;2.83;1.50;;;19.40;79.00;;;;;;4992731;28;20034;-74
2024/03/23 12:29:31;;;;;;;2.95;1.50;;;19.40;79.50;;;;;;4992807;28;20046;-76
2024/03/23 12:32:02;;;;;;;3.47;2.20;;;19.30;78.80;;;;;;4974741;28;20510;-76
2024/03/23 12:34:30;;;;;;;4.53;1.60;;;19.30;79.90;;;;;;4987750;28;20092;-75
2024/03/23 12:36:57;;;;;;;3.78;1.80;;;19.20;80.20;;;;;;4988749;28;20401;-76
2024/03/23 12:39:24;;;;;;;2.88;2.15;;;19.10;79.00;;;;;;4971361;28;20604;-76
2024/03/23 12:41:52;;;;;;;2.55;1.67;;;19.00;80.30;;;;;;4967574;28;20043;-75
2024/03/23 12:44:20;;;;;;;4.60;2.63;;;19.00;80.80;;;;;;4989996;28;20069;-79